Time;durP1;ratioP1;P1;durP2;ratioP2;P2;SDS_P1;SDS_P2;PMS_P1;PMS_P2;Temp;Humidity;BMP_temperature;BMP_pressure;BME280_temperature;BME280_humidity;BME280_pressure;Samples;Min_cycle;Max_cycle;Signal;HPM_P1;HPM_P2
2024/03/14 00:01:44;;;;;;;7.83;6.30;;;11.90;99.90;;;;;;5092475;28;20264;-86
2024/03/14 00:04:10;;;;;;;7.23;6.10;;;11.90;99.90;;;;;;5092569;28;20185;-85
2024/03/14 00:06:35;;;;;;;6.83;6.00;;;11.90;99.90;;;;;;5093528;28;20647;-86
2024/03/14 00:09:02;;;;;;;7.13;6.43;;;11.90;99.90;;;;;;5093942;28;20259;-86
2024/03/14 00:11:29;;;;;;;7.83;7.03;;;11.90;99.90;;;;;;5093883;28;20181;-84
2024/03/14 00:13:55;;;;;;;7.10;6.27;;;11.90;99.90;;;;;;5093794;28;20171;-85
2024/03/14 00:16:21;;;;;;;7.23;6.50;;;11.90;99.90;;;;;;5093681;28;20677;-87
2024/03/14 00:18:47;;;;;;;7.33;6.20;;;11.80;99.90;;;;;;5093359;28;20180;-85
2024/03/14 00:21:14;;;;;;;9.30;6.80;;;11.80;99.90;;;;;;5093834;28;20548;-85
2024/03/14 00:23:40;;;;;;;8.80;7.03;;;11.80;99.90;;;;;;5093111;28;20188;-86
2024/03/14 00:26:08;;;;;;;7.97;7.10;;;11.80;99.90;;;;;;5093154;28;20262;-85
2024/03/14 00:28:39;;;;;;;9.43;6.90;;;11.70;99.90;;;;;;5093508;28;20547;-85
2024/03/14 00:31:04;;;;;;;7.77;7.00;;;11.70;99.90;;;;;;5093721;28;20221;-85
2024/03/14 00:33:31;;;;;;;8.13;7.10;;;11.80;99.90;;;;;;5093744;28;20550;-86
2024/03/14 00:35:57;;;;;;;8.20;7.30;;;11.80;99.90;;;;;;5093440;28;20246;-85
2024/03/14 00:38:22;;;;;;;9.37;7.43;;;11.80;99.90;;;;;;5092602;28;20215;-86
2024/03/14 00:40:48;;;;;;;9.83;7.63;;;11.80;99.90;;;;;;5093014;28;20217;-86
2024/03/14 00:43:14;;;;;;;9.47;8.47;;;11.80;99.90;;;;;;5092977;28;20545;-85
2024/03/14 00:45:40;;;;;;;9.57;7.57;;;11.80;99.90;;;;;;5093682;28;20576;-85
2024/03/14 00:48:07;;;;;;;9.43;8.20;;;11.80;99.90;;;;;;5092869;28;20210;-85
2024/03/14 00:50:35;;;;;;;9.43;7.77;;;11.80;99.90;;;;;;5093893;28;20218;-85
2024/03/14 00:53:04;;;;;;;10.40;8.07;;;11.70;99.90;;;;;;5093199;28;20226;-87
2024/03/14 00:55:30;;;;;;;11.53;8.57;;;11.70;99.90;;;;;;5094446;28;20521;-85
2024/03/14 00:57:57;;;;;;;9.37;8.30;;;11.70;99.90;;;;;;5092754;28;20300;-87
2024/03/14 01:00:26;;;;;;;8.87;7.27;;;11.70;99.90;;;;;;5092681;28;20635;-85
2024/03/14 01:02:53;;;;;;;9.50;7.77;;;11.70;99.90;;;;;;5091989;28;20219;-84
2024/03/14 01:05:20;;;;;;;9.67;7.50;;;11.60;99.90;;;;;;5092612;28;20224;-85
2024/03/14 01:07:46;;;;;;;8.60;7.50;;;11.60;99.90;;;;;;5092321;28;20258;-85
2024/03/14 01:10:13;;;;;;;9.40;6.90;;;11.60;99.90;;;;;;5092003;28;20276;-86
2024/03/14 01:12:39;;;;;;;7.90;6.90;;;11.60;99.90;;;;;;5092948;28;20638;-85
2024/03/14 01:15:08;;;;;;;8.17;6.77;;;11.60;99.90;;;;;;5092676;28;20172;-85
2024/03/14 01:17:34;;;;;;;8.20;6.87;;;11.60;99.90;;;;;;5092895;28;20245;-85
2024/03/14 01:20:03;;;;;;;7.97;6.80;;;11.60;99.90;;;;;;5092322;28;20171;-86
2024/03/14 01:22:29;;;;;;;8.20;7.03;;;11.60;99.90;;;;;;5093900;28;20245;-86
2024/03/14 01:24:55;;;;;;;7.87;6.70;;;11.60;99.90;;;;;;5092709;28;20176;-85
2024/03/14 01:27:20;;;;;;;8.03;6.87;;;11.60;99.90;;;;;;5092156;28;20173;-85
2024/03/14 01:29:46;;;;;;;8.93;7.60;;;11.60;99.90;;;;;;5092601;28;20173;-85
2024/03/14 01:32:13;;;;;;;9.73;7.20;;;11.50;99.90;;;;;;5091469;28;20210;-85
2024/03/14 01:34:38;;;;;;;7.27;6.10;;;11.50;99.90;;;;;;5091146;28;20182;-84
2024/03/14 01:37:10;;;;;;;8.10;6.83;;;11.50;99.90;;;;;;5091147;28;20287;-86
2024/03/14 01:39:36;;;;;;;7.20;6.50;;;11.50;99.90;;;;;;5092315;28;20191;-86
2024/03/14 01:42:03;;;;;;;8.10;7.27;;;11.50;99.90;;;;;;5092484;28;20187;-85
2024/03/14 01:44:52;;;;;;;7.53;6.63;;;11.50;99.90;;;;;;5092451;28;20631;-85
2024/03/14 01:47:18;;;;;;;8.37;6.70;;;11.50;99.90;;;;;;5091651;28;20210;-85
2024/03/14 01:49:44;;;;;;;7.93;6.57;;;11.50;99.90;;;;;;5092436;28;20180;-86
2024/03/14 01:52:09;;;;;;;8.43;7.03;;;11.50;99.90;;;;;;5092183;28;20181;-85
2024/03/14 01:54:35;;;;;;;7.27;6.47;;;11.50;99.90;;;;;;5092547;28;20254;-86
2024/03/14 01:57:01;;;;;;;7.30;6.60;;;11.50;99.90;;;;;;5091522;28;20237;-86
2024/03/14 01:59:28;;;;;;;7.03;6.33;;;11.50;99.90;;;;;;5092402;28;20178;-86
2024/03/14 02:01:55;;;;;;;7.43;6.27;;;11.50;99.90;;;;;;5091903;28;20185;-85
2024/03/14 02:04:31;;;;;;;8.43;6.23;;;11.60;99.90;;;;;;5094071;28;20210;-85
2024/03/14 02:07:13;;;;;;;7.03;6.33;;;11.60;99.90;;;;;;5095946;28;20172;-86
2024/03/14 02:09:40;;;;;;;6.47;5.77;;;11.50;99.90;;;;;;5096174;28;20171;-85
2024/03/14 02:12:10;;;;;;;6.87;6.17;;;11.60;99.90;;;;;;5094494;28;20255;-86
2024/03/14 02:14:36;;;;;;;6.80;6.10;;;11.50;99.90;;;;;;5095066;28;20202;-85
2024/03/14 02:17:04;;;;;;;6.30;5.70;;;11.50;99.90;;;;;;5096402;28;20615;-84
2024/03/14 02:19:31;;;;;;;6.20;5.60;;;11.50;99.90;;;;;;5094717;28;20262;-85
2024/03/14 02:22:01;;;;;;;7.30;6.13;;;11.50;99.90;;;;;;5093244;28;20172;-84
2024/03/14 02:24:27;;;;;;;6.50;5.90;;;11.40;99.90;;;;;;5090504;28;20171;-84
2024/03/14 02:26:55;;;;;;;6.93;5.90;;;11.40;99.90;;;;;;5090414;28;20170;-86
2024/03/14 02:29:21;;;;;;;6.33;5.60;;;11.40;99.90;;;;;;5091910;28;20184;-86
2024/03/14 02:31:51;;;;;;;7.17;5.80;;;11.40;99.90;;;;;;5091515;28;20171;-84
2024/03/14 02:34:16;;;;;;;6.83;6.13;;;11.40;99.90;;;;;;5091052;28;20229;-86
2024/03/14 02:36:44;;;;;;;7.47;6.67;;;11.40;99.90;;;;;;5091944;28;20663;-86
2024/03/14 02:39:10;;;;;;;7.00;6.20;;;11.40;99.90;;;;;;5091076;28;20199;-85
2024/03/14 02:41:36;;;;;;;8.60;6.10;;;11.30;99.90;;;;;;5091093;28;20229;-85
2024/03/14 02:44:16;;;;;;;7.07;6.37;;;11.30;99.90;;;;;;5091016;28;20188;-85
2024/03/14 02:46:42;;;;;;;7.13;6.13;;;11.30;99.90;;;;;;5091482;28;20172;-86
2024/03/14 02:49:14;;;;;;;6.67;6.07;;;11.30;99.90;;;;;;5091622;28;20170;-86
2024/03/14 02:51:45;;;;;;;7.33;6.13;;;11.30;99.90;;;;;;5091205;28;20213;-84
2024/03/14 02:54:15;;;;;;;9.53;6.53;;;11.30;99.90;;;;;;5091154;28;20164;-85
2024/03/14 02:56:41;;;;;;;7.90;6.27;;;11.30;99.90;;;;;;5092833;28;20199;-87
2024/03/14 02:59:10;;;;;;;8.47;6.53;;;11.30;99.90;;;;;;5091783;28;20203;-86
2024/03/14 03:01:37;;;;;;;7.33;6.63;;;11.30;99.90;;;;;;5091596;28;20601;-86
2024/03/14 03:04:04;;;;;;;7.33;6.30;;;11.30;99.90;;;;;;5090551;28;20195;-85
2024/03/14 03:06:30;;;;;;;7.10;6.23;;;11.30;99.90;;;;;;5090472;28;20593;-85
2024/03/14 03:08:59;;;;;;;8.67;6.50;;;11.20;99.90;;;;;;5090957;28;20172;-85
2024/03/14 03:11:26;;;;;;;8.23;6.30;;;11.20;99.90;;;;;;5091005;28;20229;-85
2024/03/14 03:13:52;;;;;;;6.50;5.87;;;11.20;99.90;;;;;;5093002;28;20191;-86
2024/03/14 03:16:19;;;;;;;7.97;6.20;;;11.20;99.90;;;;;;5093650;28;20225;-85
2024/03/14 03:18:44;;;;;;;6.77;6.07;;;11.20;99.90;;;;;;5095198;28;20184;-86
2024/03/14 03:21:10;;;;;;;7.60;6.00;;;11.20;99.90;;;;;;5095153;28;20182;-85
2024/03/14 03:23:36;;;;;;;8.67;5.73;;;11.20;99.90;;;;;;5094236;28;20215;-85
2024/03/14 03:26:05;;;;;;;6.90;6.20;;;11.20;99.90;;;;;;5094977;28;20237;-85
2024/03/14 03:28:31;;;;;;;6.63;5.83;;;11.20;99.90;;;;;;5093866;28;20184;-85
2024/03/14 03:30:57;;;;;;;6.40;5.63;;;11.20;99.90;;;;;;5094621;28;20236;-85
2024/03/14 03:33:23;;;;;;;7.03;5.93;;;11.10;99.90;;;;;;5095381;28;20666;-85
2024/03/14 03:35:49;;;;;;;6.40;5.33;;;11.10;99.90;;;;;;5093735;28;20173;-85
2024/03/14 03:38:15;;;;;;;8.00;6.17;;;11.10;99.90;;;;;;5094310;28;20747;-85
2024/03/14 03:40:40;;;;;;;8.83;6.20;;;11.10;99.90;;;;;;5094691;28;20214;-85
2024/03/14 03:43:11;;;;;;;8.13;5.80;;;11.10;99.90;;;;;;5094711;28;20654;-86
2024/03/14 03:45:37;;;;;;;6.13;5.50;;;11.00;99.90;;;;;;5093664;28;20266;-86
2024/03/14 03:48:02;;;;;;;7.10;5.33;;;11.10;99.90;;;;;;5094746;28;20203;-85
2024/03/14 03:50:28;;;;;;;7.87;5.40;;;11.10;99.90;;;;;;5094032;28;20632;-85
2024/03/14 03:52:54;;;;;;;9.63;5.50;;;11.00;99.90;;;;;;5093101;28;20175;-85
2024/03/14 03:55:21;;;;;;;5.40;4.70;;;11.00;99.90;;;;;;5094171;28;20203;-85
2024/03/14 03:57:47;;;;;;;5.00;4.20;;;11.00;99.90;;;;;;5093986;28;20204;-86
2024/03/14 04:02:59;;;;;;;6.93;4.90;;;11.10;99.90;;;;;;5095871;28;20666;-84
2024/03/14 04:05:27;;;;;;;5.77;4.87;;;11.00;99.90;;;;;;5093272;28;20175;-86
2024/03/14 04:07:55;;;;;;;5.10;4.40;;;11.00;99.90;;;;;;5093769;28;20167;-84
2024/03/14 04:10:23;;;;;;;5.77;4.83;;;10.90;99.90;;;;;;5093103;28;20165;-85
2024/03/14 04:12:56;;;;;;;6.53;4.90;;;10.90;99.90;;;;;;5092222;28;20263;-85
2024/03/14 04:15:22;;;;;;;6.20;4.90;;;10.90;99.90;;;;;;5093313;28;20196;-85
2024/03/14 04:17:48;;;;;;;5.97;4.43;;;10.90;99.90;;;;;;5093052;28;20239;-85
2024/03/14 04:20:15;;;;;;;6.13;4.80;;;10.90;99.90;;;;;;5092836;28;20164;-85
2024/03/14 04:22:41;;;;;;;5.00;4.47;;;10.90;99.90;;;;;;5092332;28;20172;-86
2024/03/14 04:25:11;;;;;;;6.03;4.70;;;10.80;99.90;;;;;;5093324;28;20175;-86
2024/03/14 04:27:38;;;;;;;5.30;4.60;;;10.80;99.90;;;;;;5094807;28;20177;-85
2024/03/14 04:30:06;;;;;;;6.40;4.30;;;10.80;99.90;;;;;;5093991;28;20175;-85
2024/03/14 04:32:32;;;;;;;7.87;5.07;;;10.80;99.90;;;;;;5094116;28;20729;-85
2024/03/14 04:34:58;;;;;;;6.60;5.13;;;10.80;99.90;;;;;;5093279;28;20214;-86
2024/03/14 04:37:25;;;;;;;5.03;4.50;;;10.80;99.90;;;;;;5092629;28;20204;-85
2024/03/14 04:39:51;;;;;;;5.90;4.53;;;10.80;99.90;;;;;;5093647;28;20170;-85
2024/03/14 04:42:17;;;;;;;5.00;4.50;;;10.80;99.90;;;;;;5092127;28;20633;-85
2024/03/14 04:44:43;;;;;;;5.17;4.47;;;10.80;99.90;;;;;;5092320;28;20170;-84
2024/03/14 04:47:10;;;;;;;6.80;4.70;;;10.80;99.90;;;;;;5092460;28;20173;-86
2024/03/14 04:49:36;;;;;;;5.77;4.90;;;10.90;99.90;;;;;;5093046;28;20186;-85
2024/03/14 04:52:04;;;;;;;5.53;4.83;;;11.00;99.90;;;;;;5091333;28;20260;-85
2024/03/14 04:54:32;;;;;;;6.20;4.70;;;11.00;99.90;;;;;;5092341;28;20180;-85
2024/03/14 04:57:01;;;;;;;5.23;4.73;;;10.90;99.90;;;;;;5093879;28;20208;-85
2024/03/14 04:59:27;;;;;;;8.53;5.47;;;11.00;99.90;;;;;;5092764;28;20177;-86
2024/03/14 05:01:54;;;;;;;6.10;4.77;;;10.90;99.90;;;;;;5091906;28;20207;-85
2024/03/14 05:04:21;;;;;;;6.47;4.77;;;10.80;99.90;;;;;;5093022;28;20181;-85
2024/03/14 05:06:47;;;;;;;5.40;4.77;;;10.80;99.90;;;;;;5091484;28;20249;-86
2024/03/14 05:09:13;;;;;;;7.80;4.77;;;10.70;99.90;;;;;;5091955;28;20675;-87
2024/03/14 05:11:39;;;;;;;6.63;4.77;;;10.70;99.90;;;;;;5092751;28;20207;-86
2024/03/14 05:14:06;;;;;;;9.00;5.30;;;10.70;99.90;;;;;;5093020;28;20175;-86
2024/03/14 05:16:33;;;;;;;5.33;4.70;;;10.70;99.90;;;;;;5094398;28;20210;-86
2024/03/14 05:19:00;;;;;;;6.10;4.93;;;10.70;99.90;;;;;;5094008;28;20206;-85
2024/03/14 05:21:27;;;;;;;5.70;5.10;;;10.80;99.90;;;;;;5094573;28;20173;-85
2024/03/14 05:23:52;;;;;;;6.43;4.87;;;10.70;99.90;;;;;;5094155;28;20291;-85
2024/03/14 05:26:18;;;;;;;5.90;5.13;;;10.70;99.90;;;;;;5091820;28;20676;-86
2024/03/14 05:28:44;;;;;;;5.70;4.77;;;10.70;99.90;;;;;;5092798;28;20176;-85
2024/03/14 05:31:10;;;;;;;6.60;4.73;;;10.60;99.90;;;;;;5092240;28;20667;-86
2024/03/14 05:33:35;;;;;;;4.67;4.17;;;10.60;99.90;;;;;;5093408;28;20471;-86
2024/03/14 05:36:01;;;;;;;6.13;4.87;;;10.60;99.90;;;;;;5091460;28;20677;-85
2024/03/14 05:38:27;;;;;;;6.47;5.00;;;10.60;99.90;;;;;;5090657;28;20236;-85
2024/03/14 05:40:53;;;;;;;5.23;4.27;;;10.60;99.90;;;;;;5091184;28;20196;-86
2024/03/14 05:43:22;;;;;;;5.77;4.67;;;10.60;99.90;;;;;;5091794;28;20260;-85
2024/03/14 05:45:47;;;;;;;5.30;4.53;;;10.50;99.90;;;;;;5092507;28;20180;-85
2024/03/14 05:48:13;;;;;;;5.37;4.60;;;10.40;99.90;;;;;;5091988;28;20259;-84
2024/03/14 05:50:41;;;;;;;6.20;4.87;;;10.40;99.90;;;;;;5092364;28;20185;-86
2024/03/14 05:53:07;;;;;;;5.27;4.40;;;10.40;99.90;;;;;;5092187;28;20181;-86
2024/03/14 05:55:34;;;;;;;6.87;5.03;;;10.40;99.90;;;;;;5092077;28;20611;-85
2024/03/14 05:57:59;;;;;;;4.77;4.03;;;10.40;99.90;;;;;;5091315;28;20736;-84
2024/03/14 06:00:25;;;;;;;6.00;4.50;;;10.40;99.90;;;;;;5091097;28;20266;-85
2024/03/14 06:02:53;;;;;;;7.90;4.50;;;10.40;99.90;;;;;;5092514;28;20223;-85
2024/03/14 06:05:19;;;;;;;5.03;4.30;;;10.40;99.90;;;;;;5091522;28;20178;-85
2024/03/14 06:07:45;;;;;;;5.17;4.40;;;10.30;99.90;;;;;;5091239;28;20180;-86
2024/03/14 06:10:12;;;;;;;5.03;4.43;;;10.30;99.90;;;;;;5091953;28;20206;-85
2024/03/14 06:12:38;;;;;;;7.90;4.63;;;10.30;99.90;;;;;;5092060;28;20181;-86
2024/03/14 06:15:08;;;;;;;7.47;5.07;;;10.40;99.90;;;;;;5091597;28;20617;-86
2024/03/14 06:17:34;;;;;;;10.77;5.30;;;10.40;99.90;;;;;;5091525;28;20280;-86
2024/03/14 06:20:00;;;;;;;5.73;4.40;;;10.40;99.90;;;;;;5091285;28;20628;-84
2024/03/14 06:22:26;;;;;;;6.10;4.57;;;10.40;99.90;;;;;;5092058;28;20552;-85
2024/03/14 06:24:52;;;;;;;8.57;5.50;;;10.40;99.90;;;;;;5092167;28;20638;-85
2024/03/14 06:27:17;;;;;;;7.63;4.77;;;10.50;99.90;;;;;;5091422;28;20191;-85
2024/03/14 06:29:43;;;;;;;7.77;4.90;;;10.50;99.90;;;;;;5091428;28;20168;-86
2024/03/14 06:32:09;;;;;;;6.67;4.90;;;10.40;99.90;;;;;;5091310;28;20181;-86
2024/03/14 06:34:36;;;;;;;7.07;4.33;;;10.50;99.90;;;;;;5091552;28;20169;-85
2024/03/14 06:37:02;;;;;;;6.27;4.47;;;10.40;99.90;;;;;;5090711;28;20200;-86
2024/03/14 06:39:28;;;;;;;6.00;4.67;;;10.40;99.90;;;;;;5082396;28;20199;-86
2024/03/14 06:41:54;;;;;;;6.83;4.30;;;10.50;99.90;;;;;;5071782;28;20651;-85
2024/03/14 06:44:22;;;;;;;7.03;4.90;;;10.50;99.90;;;;;;5070495;28;20629;-86
2024/03/14 06:46:48;;;;;;;7.13;4.70;;;10.50;99.90;;;;;;5070155;28;20235;-86
2024/03/14 06:49:14;;;;;;;5.53;4.30;;;10.50;99.90;;;;;;5072068;28;20174;-84
2024/03/14 06:51:43;;;;;;;6.37;4.23;;;10.50;99.90;;;;;;5075545;28;20177;-85
2024/03/14 06:54:12;;;;;;;5.43;4.13;;;10.50;99.90;;;;;;5074527;28;20248;-85
2024/03/14 06:56:38;;;;;;;7.33;4.40;;;10.40;99.90;;;;;;5074836;28;20273;-85
2024/03/14 06:59:07;;;;;;;7.83;4.43;;;10.40;99.90;;;;;;5074516;28;20694;-86
2024/03/14 07:01:33;;;;;;;6.37;4.57;;;10.40;99.90;;;;;;5073610;28;20590;-86
2024/03/14 07:03:59;;;;;;;4.90;3.93;;;10.50;99.90;;;;;;5072828;28;20220;-85
2024/03/14 07:06:28;;;;;;;5.53;3.90;;;10.50;99.90;;;;;;5074955;28;20209;-86
2024/03/14 07:08:57;;;;;;;5.20;3.90;;;10.60;99.90;;;;;;5073809;28;20209;-86
2024/03/14 07:11:26;;;;;;;7.57;4.13;;;10.70;99.90;;;;;;5084309;28;20679;-87
2024/03/14 07:13:56;;;;;;;6.60;3.40;;;10.70;99.90;;;;;;5094050;28;20265;-86
2024/03/14 07:16:22;;;;;;;5.10;3.47;;;10.70;99.90;;;;;;5094266;28;20183;-85
2024/03/14 07:18:53;;;;;;;7.37;4.20;;;10.80;99.90;;;;;;5093401;28;20587;-86
2024/03/14 07:21:22;;;;;;;5.53;3.50;;;10.90;99.90;;;;;;5094206;28;20209;-86
2024/03/14 07:23:48;;;;;;;6.23;3.37;;;10.90;99.90;;;;;;5094029;28;20180;-84
2024/03/14 07:26:22;;;;;;;9.73;3.83;;;10.90;99.90;;;;;;5094226;28;20282;-86
2024/03/14 07:28:53;;;;;;;4.33;2.90;;;10.90;99.90;;;;;;5095407;28;20173;-84
2024/03/14 07:31:21;;;;;;;5.23;2.90;;;11.00;99.90;;;;;;5094310;28;20185;-85
2024/03/14 07:33:48;;;;;;;5.33;3.20;;;11.10;99.90;;;;;;5093363;28;20176;-85
2024/03/14 07:36:17;;;;;;;7.37;3.33;;;11.20;99.90;;;;;;5094440;28;20650;-91
2024/03/14 07:38:47;;;;;;;4.00;3.20;;;11.30;99.90;;;;;;5093817;28;20227;-85
2024/03/14 07:41:22;;;;;;;3.97;2.73;;;11.40;99.90;;;;;;5093923;28;20176;-85
2024/03/14 07:43:53;;;;;;;4.30;2.83;;;11.50;99.90;;;;;;5093947;28;20175;-86
2024/03/14 07:46:19;;;;;;;5.50;3.20;;;11.60;99.90;;;;;;5093417;28;20183;-87
2024/03/14 07:48:49;;;;;;;4.80;3.17;;;11.60;99.90;;;;;;5094253;28;20188;-86
2024/03/14 07:51:16;;;;;;;7.33;4.23;;;11.70;99.90;;;;;;5094933;28;20241;-85
2024/03/14 07:53:43;;;;;;;7.73;3.23;;;11.80;99.90;;;;;;5093948;28;20213;-86
2024/03/14 07:56:12;;;;;;;6.20;2.90;;;11.80;99.90;;;;;;5095352;28;20622;-86
2024/03/14 07:58:42;;;;;;;5.30;2.77;;;11.90;99.90;;;;;;5093221;28;20267;-87
2024/03/14 08:01:15;;;;;;;5.93;2.53;;;12.00;99.90;;;;;;5092847;28;20180;-86
2024/03/14 08:03:47;;;;;;;3.87;2.73;;;12.00;99.90;;;;;;5093407;28;20270;-85
2024/03/14 08:06:18;;;;;;;4.33;2.47;;;12.10;99.90;;;;;;5093875;28;20172;-86
2024/03/14 08:08:45;;;;;;;7.97;3.33;;;12.20;99.90;;;;;;5093912;28;20175;-86
2024/03/14 08:11:14;;;;;;;6.47;2.57;;;12.30;99.90;;;;;;5093842;28;20172;-86
2024/03/14 08:13:40;;;;;;;4.90;2.50;;;12.40;99.90;;;;;;5093524;28;20199;-87
2024/03/14 08:16:14;;;;;;;4.63;3.40;;;12.40;99.90;;;;;;5094117;28;20587;-85
2024/03/14 08:18:41;;;;;;;5.07;2.57;;;12.50;99.90;;;;;;5093310;28;20589;-86
2024/03/14 08:21:12;;;;;;;4.97;2.93;;;12.60;99.30;;;;;;5093627;28;20269;-86
2024/03/14 08:23:41;;;;;;;5.40;3.67;;;12.60;98.30;;;;;;5093797;28;20206;-87
2024/03/14 08:26:10;;;;;;;4.80;2.90;;;12.70;97.90;;;;;;5093784;28;20168;-86
2024/03/14 08:28:38;;;;;;;4.17;2.80;;;12.90;95.80;;;;;;5094488;28;20204;-85
2024/03/14 08:31:06;;;;;;;5.03;2.47;;;12.90;94.20;;;;;;5093320;28;20515;-84
2024/03/14 08:33:35;;;;;;;6.60;2.00;;;13.00;93.10;;;;;;5093423;28;20183;-84
2024/03/14 08:36:04;;;;;;;6.83;2.27;;;12.90;92.70;;;;;;5093163;28;20205;-87
2024/03/14 08:38:30;;;;;;;3.27;2.23;;;12.90;92.90;;;;;;5092676;28;20215;-85
2024/03/14 08:40:57;;;;;;;6.40;2.20;;;12.90;92.80;;;;;;5093074;28;20277;-84
2024/03/14 08:43:24;;;;;;;8.60;2.57;;;13.00;91.30;;;;;;5093695;28;20216;-85
2024/03/14 08:45:53;;;;;;;4.60;2.40;;;13.00;91.10;;;;;;5094601;28;20200;-86
2024/03/14 08:48:21;;;;;;;3.13;1.80;;;13.20;91.00;;;;;;5093097;28;20240;-84
2024/03/14 08:50:47;;;;;;;3.73;2.10;;;13.30;89.30;;;;;;5093224;28;20171;-86
2024/03/14 08:53:13;;;;;;;3.23;2.10;;;13.50;83.20;;;;;;5093109;28;20262;-84
2024/03/14 08:55:55;;;;;;;5.30;2.00;;;13.50;75.60;;;;;;5092979;28;20669;-87
2024/03/14 08:58:25;;;;;;;3.90;1.83;;;13.50;76.20;;;;;;5092648;28;20210;-84
2024/03/14 09:00:53;;;;;;;2.77;1.80;;;13.60;75.70;;;;;;5093214;28;20172;-86
2024/03/14 09:03:19;;;;;;;4.03;2.00;;;13.60;73.70;;;;;;5092791;28;20195;-84
2024/03/14 09:05:45;;;;;;;4.33;2.10;;;13.70;70.60;;;;;;5092733;28;20171;-87
2024/03/14 09:08:11;;;;;;;4.80;2.07;;;13.70;72.80;;;;;;5092833;28;20259;-87
2024/03/14 09:10:40;;;;;;;4.77;2.00;;;13.60;75.00;;;;;;5092905;28;20649;-85
2024/03/14 09:13:07;;;;;;;4.30;1.90;;;13.70;73.30;;;;;;5093166;28;20534;-85
2024/03/14 09:15:35;;;;;;;3.70;2.20;;;13.70;72.60;;;;;;5093255;28;20228;-86
2024/03/14 09:18:01;;;;;;;4.70;1.77;;;13.80;72.90;;;;;;5092938;28;20248;-85
2024/03/14 09:20:28;;;;;;;3.57;1.97;;;13.90;69.20;;;;;;5093378;28;20624;-85
2024/03/14 09:22:55;;;;;;;2.87;1.47;;;13.90;66.70;;;;;;5091969;28;20176;-86
2024/03/14 09:25:22;;;;;;;4.53;1.70;;;14.20;61.80;;;;;;5093865;28;20168;-84
2024/03/14 09:27:48;;;;;;;3.93;1.50;;;14.30;57.60;;;;;;5092745;28;20214;-87
2024/03/14 09:30:15;;;;;;;3.93;1.80;;;14.30;54.10;;;;;;5092808;28;20176;-84
2024/03/14 09:32:41;;;;;;;3.97;1.60;;;14.40;56.40;;;;;;5092423;28;20277;-86
2024/03/14 09:35:11;;;;;;;4.37;2.10;;;14.40;56.10;;;;;;5092487;28;20262;-86
2024/03/14 09:37:37;;;;;;;6.40;1.97;;;14.50;53.60;;;;;;5092367;28;20217;-87
2024/03/14 09:40:07;;;;;;;3.07;1.60;;;14.60;52.30;;;;;;5092019;28;20266;-85
2024/03/14 09:42:33;;;;;;;5.17;1.57;;;14.70;50.70;;;;;;5091674;28;20251;-87
2024/03/14 09:45:02;;;;;;;4.10;1.60;;;15.00;44.80;;;;;;5091292;28;20258;-85
2024/03/14 09:47:37;;;;;;;4.33;2.03;;;15.10;39.80;;;;;;5092147;28;20169;-88
2024/03/14 09:50:17;;;;;;;3.60;1.90;;;15.30;36.00;;;;;;5091972;28;20169;-87
2024/03/14 09:52:43;;;;;;;3.87;2.17;;;15.20;22.10;;;;;;5091946;28;20659;-86
2024/03/14 09:55:13;;;;;;;5.23;2.10;;;15.10;7.70;;;;;;5091424;28;20178;-86
2024/03/14 09:57:42;;;;;;;2.83;1.80;;;15.20;8.00;;;;;;5091391;28;20206;-86
2024/03/14 10:00:11;;;;;;;4.90;1.70;;;15.30;2.30;;;;;;5092143;28;20171;-87
2024/03/14 10:02:38;;;;;;;4.57;1.90;;;15.50;1.00;;;;;;5092836;28;20215;-86
2024/03/14 10:05:13;;;;;;;5.13;2.00;;;15.40;1.00;;;;;;5091778;28;20179;-88
2024/03/14 10:07:39;;;;;;;4.47;1.80;;;15.50;1.00;;;;;;5091527;28;20174;-85
2024/03/14 10:10:08;;;;;;;3.27;1.97;;;15.40;1.00;;;;;;5091870;28;20199;-86
2024/03/14 10:12:36;;;;;;;3.90;2.40;;;15.50;1.00;;;;;;5091855;28;20174;-87
2024/03/14 10:15:12;;;;;;;5.43;1.80;;;15.50;1.00;;;;;;5091407;28;20171;-87
2024/03/14 10:17:40;;;;;;;2.83;1.53;;;15.50;1.00;;;;;;5091282;28;20207;-86
2024/03/14 10:20:13;;;;;;;3.73;1.40;;;15.80;1.00;;;;;;5091546;28;20171;-87
2024/03/14 10:22:39;;;;;;;4.20;1.80;;;15.90;1.00;;;;;;5091346;28;20523;-85
2024/03/14 10:25:09;;;;;;;5.10;2.33;;;16.00;1.00;;;;;;5097318;28;20175;-86
2024/03/14 10:27:44;;;;;;;3.97;2.33;;;16.00;1.00;;;;;;5099028;28;20183;-86
2024/03/14 10:30:12;;;;;;;6.30;2.17;;;16.00;1.00;;;;;;5098282;28;20189;-86
2024/03/14 10:32:42;;;;;;;3.60;2.10;;;16.10;1.00;;;;;;5098361;28;20178;-86
2024/03/14 10:35:10;;;;;;;4.57;2.10;;;16.30;1.00;;;;;;5098243;28;20220;-86
2024/03/14 10:37:40;;;;;;;4.87;2.00;;;16.30;1.00;;;;;;5097729;28;20212;-86
2024/03/14 10:40:19;;;;;;;4.37;1.57;;;16.30;1.00;;;;;;5098140;28;20273;-86
2024/03/14 10:42:50;;;;;;;3.90;2.00;;;16.30;1.00;;;;;;5097450;28;20167;-86
2024/03/14 10:45:16;;;;;;;5.00;1.93;;;16.40;1.00;;;;;;5099360;28;20171;-87
2024/03/14 10:47:42;;;;;;;2.73;1.83;;;16.30;1.00;;;;;;5097926;28;20171;-86
2024/03/14 10:50:16;;;;;;;4.53;2.23;;;16.30;1.00;;;;;;5101310;28;20224;-86
2024/03/14 10:52:45;;;;;;;2.63;1.73;;;16.40;1.00;;;;;;5099661;28;20500;-85
2024/03/14 10:55:14;;;;;;;2.10;1.40;;;16.40;1.00;;;;;;5100262;28;20230;-86
2024/03/14 10:57:41;;;;;;;2.97;1.70;;;16.60;1.00;;;;;;5097470;28;20233;-87
2024/03/14 11:00:17;;;;;;;4.30;1.60;;;16.60;1.00;;;;;;5098116;28;20278;-85
2024/03/14 11:02:46;;;;;;;3.97;1.90;;;16.70;1.00;;;;;;5097452;28;20278;-84
2024/03/14 11:05:12;;;;;;;3.00;1.50;;;16.70;1.00;;;;;;5097549;28;20175;-84
2024/03/14 11:07:41;;;;;;;3.20;1.37;;;16.70;1.00;;;;;;5098875;28;20179;-86
2024/03/14 11:10:22;;;;;;;3.57;1.30;;;16.70;1.00;;;;;;5097442;28;20587;-86
2024/03/14 11:12:50;;;;;;;3.83;1.20;;;16.70;1.00;;;;;;5097019;28;20184;-86
2024/03/14 11:15:21;;;;;;;3.77;1.30;;;16.80;1.00;;;;;;5081369;28;20203;-85
2024/03/14 11:17:50;;;;;;;4.17;1.30;;;16.80;1.00;;;;;;5102643;28;20211;-84
2024/03/14 11:20:25;;;;;;;3.17;1.30;;;17.00;1.00;;;;;;5096864;28;20179;-85
2024/03/14 11:22:55;;;;;;;3.80;1.50;;;17.20;1.00;;;;;;5097207;28;20220;-84
2024/03/14 11:25:25;;;;;;;5.40;1.30;;;17.40;1.00;;;;;;5097176;28;20170;-85
2024/03/14 11:27:54;;;;;;;3.23;1.10;;;17.40;1.00;;;;;;5097595;28;20167;-84
2024/03/14 11:30:21;;;;;;;3.70;1.60;;;17.40;1.00;;;;;;5097658;28;20769;-86
2024/03/14 11:32:56;;;;;;;2.03;1.20;;;17.50;1.00;;;;;;5098148;28;20187;-86
2024/03/14 11:35:40;;;;;;;2.27;1.30;;;17.50;1.00;;;;;;5095005;28;20280;-86
2024/03/14 11:38:18;;;;;;;3.47;1.47;;;17.70;1.00;;;;;;5094009;28;20213;-86
2024/03/14 11:40:48;;;;;;;2.87;1.33;;;17.70;1.00;;;;;;5094231;28;20179;-86
2024/03/14 11:43:18;;;;;;;3.97;1.27;;;17.70;1.00;;;;;;5095726;28;20191;-85
2024/03/14 11:45:44;;;;;;;3.47;1.10;;;17.80;1.00;;;;;;5093445;28;20172;-87
2024/03/14 11:48:16;;;;;;;2.07;1.10;;;18.00;1.00;;;;;;5094815;28;20173;-85
2024/03/14 11:50:42;;;;;;;2.00;1.20;;;18.00;1.00;;;;;;5093689;28;20175;-84
2024/03/14 11:53:11;;;;;;;2.67;1.10;;;18.00;1.00;;;;;;5093796;28;20176;-85
2024/03/14 11:55:40;;;;;;;2.97;1.20;;;18.20;1.00;;;;;;5093895;28;20170;-86
2024/03/14 11:58:14;;;;;;;2.47;1.30;;;18.30;1.00;;;;;;5094865;28;20213;-86
2024/03/14 12:00:44;;;;;;;2.87;1.30;;;18.40;1.00;;;;;;5093563;28;20179;-85
2024/03/14 12:03:11;;;;;;;2.77;1.23;;;18.40;1.00;;;;;;5093527;28;20289;-84
2024/03/14 12:05:42;;;;;;;3.07;1.50;;;18.50;1.00;;;;;;5093736;28;20167;-87
2024/03/14 12:08:12;;;;;;;3.80;1.20;;;18.50;1.00;;;;;;5093814;28;20171;-85
2024/03/14 12:10:39;;;;;;;2.50;1.30;;;18.70;1.00;;;;;;5093565;28;20171;-83
2024/03/14 12:13:10;;;;;;;3.07;1.70;;;18.70;1.00;;;;;;5093808;28;20612;-85
2024/03/14 12:15:37;;;;;;;4.13;1.67;;;18.60;1.00;;;;;;5093846;28;20216;-84
2024/03/14 12:18:04;;;;;;;3.33;1.70;;;18.70;1.00;;;;;;5093624;28;20207;-86
2024/03/14 12:20:32;;;;;;;3.03;1.57;;;18.80;1.00;;;;;;5094183;28;20168;-86
2024/03/14 12:22:58;;;;;;;5.90;1.83;;;18.80;1.00;;;;;;5093426;28;20183;-87
2024/03/14 12:25:27;;;;;;;2.40;1.30;;;18.80;1.00;;;;;;5093271;28;20236;-85
2024/03/14 12:27:55;;;;;;;3.80;1.30;;;18.80;1.00;;;;;;5094120;28;20172;-86
2024/03/14 12:30:20;;;;;;;3.40;1.30;;;18.90;1.00;;;;;;5094663;28;20263;-85
2024/03/14 12:32:56;;;;;;;2.83;1.30;;;18.80;1.00;;;;;;5093052;28;20241;-84
2024/03/14 12:35:23;;;;;;;3.67;1.23;;;18.70;1.00;;;;;;5093279;28;20263;-85
2024/03/14 12:37:52;;;;;;;3.03;1.40;;;18.70;1.00;;;;;;5093096;28;20663;-85
2024/03/14 12:40:19;;;;;;;3.63;1.50;;;18.80;1.00;;;;;;5092563;28;20175;-85
2024/03/14 12:42:53;;;;;;;5.10;1.40;;;18.90;1.00;;;;;;5092591;28;20174;-86
2024/03/14 12:45:25;;;;;;;1.87;1.20;;;18.80;1.00;;;;;;5093145;28;20167;-85
2024/03/14 12:47:52;;;;;;;3.20;1.40;;;18.80;1.00;;;;;;5092577;28;20202;-85
2024/03/14 12:50:20;;;;;;;3.90;1.33;;;19.10;1.00;;;;;;5093261;28;20172;-85
2024/03/14 12:52:58;;;;;;;3.13;1.30;;;19.30;1.00;;;;;;5094294;28;20259;-86
2024/03/14 12:55:25;;;;;;;5.30;1.80;;;19.30;1.00;;;;;;5092609;28;20236;-86